createdAt,value
2023-02-06T00:01:21.474Z,10.90
2023-02-06T00:03:47.967Z,10.90
2023-02-06T00:06:14.466Z,11.00
2023-02-06T00:08:40.959Z,11.10
2023-02-06T00:11:07.521Z,11.10
2023-02-06T00:13:34.002Z,11.10
2023-02-06T00:16:00.584Z,11.20
2023-02-06T00:18:27.104Z,11.10
2023-02-06T00:20:53.608Z,11.10
2023-02-06T00:23:20.081Z,11.10
2023-02-06T00:25:46.579Z,11.00
2023-02-06T00:28:13.069Z,11.10
2023-02-06T00:30:39.581Z,11.10
2023-02-06T00:33:06.086Z,11.20
2023-02-06T00:35:32.636Z,11.00
2023-02-06T00:37:59.119Z,11.10
2023-02-06T00:40:25.613Z,11.00
2023-02-06T00:42:52.076Z,10.90
2023-02-06T00:45:18.539Z,10.70
2023-02-06T00:47:44.999Z,10.80
2023-02-06T00:50:11.480Z,10.80
2023-02-06T00:52:37.958Z,10.90
2023-02-06T00:55:04.602Z,10.90
2023-02-06T00:57:31.122Z,10.90
2023-02-06T00:59:57.587Z,10.90
2023-02-06T01:02:24.110Z,10.80
2023-02-06T01:04:50.592Z,10.90
2023-02-06T01:07:17.123Z,10.90
2023-02-06T01:09:43.608Z,11.00
2023-02-06T01:12:10.067Z,11.10
2023-02-06T01:14:36.724Z,11.10
2023-02-06T01:17:03.215Z,11.10
2023-02-06T01:19:29.707Z,11.00
2023-02-06T01:21:56.216Z,10.90
2023-02-06T01:24:22.701Z,10.90
2023-02-06T01:26:49.218Z,11.00
2023-02-06T01:29:15.701Z,11.00
2023-02-06T01:31:42.268Z,11.00
2023-02-06T01:34:14.718Z,11.10
2023-02-06T01:36:41.192Z,11.00
2023-02-06T01:39:07.654Z,10.90
2023-02-06T01:41:34.105Z,10.90
2023-02-06T01:44:00.559Z,10.90
2023-02-06T01:46:27.066Z,10.90
2023-02-06T01:48:53.544Z,10.90
2023-02-06T01:51:20.019Z,10.90
2023-02-06T01:53:46.517Z,10.90
2023-02-06T01:56:13.002Z,11.00
2023-02-06T01:58:39.471Z,11.00
2023-02-06T02:01:05.994Z,11.00
2023-02-06T02:03:32.499Z,11.00
2023-02-06T02:05:58.947Z,10.90
2023-02-06T02:08:25.424Z,10.90
2023-02-06T02:10:51.924Z,10.90
2023-02-06T02:13:18.411Z,10.80
2023-02-06T02:15:44.907Z,10.80
2023-02-06T02:18:11.420Z,10.80
2023-02-06T02:20:37.910Z,10.80
2023-02-06T02:23:04.428Z,10.80
2023-02-06T02:25:30.913Z,10.90
2023-02-06T02:27:57.412Z,10.90
2023-02-06T02:30:23.953Z,10.90
2023-02-06T02:32:50.444Z,10.80
2023-02-06T02:35:16.922Z,10.80
2023-02-06T02:37:43.376Z,10.70
2023-02-06T02:40:09.858Z,10.80
2023-02-06T02:42:36.343Z,10.70
2023-02-06T02:45:02.830Z,10.80
2023-02-06T02:47:29.298Z,10.80
2023-02-06T02:49:55.769Z,10.70
2023-02-06T02:52:22.243Z,10.60
2023-02-06T02:54:50.796Z,10.50
2023-02-06T02:57:17.290Z,10.60
2023-02-06T02:59:44.806Z,10.60
2023-02-06T03:02:11.323Z,10.70
2023-02-06T03:04:37.862Z,10.60
2023-02-06T03:07:04.331Z,10.60
2023-02-06T03:09:30.803Z,10.60
2023-02-06T03:11:57.259Z,10.70
2023-02-06T03:14:23.733Z,10.70
2023-02-06T03:16:50.259Z,10.70
2023-02-06T03:19:16.784Z,10.70
2023-02-06T03:21:43.257Z,10.70
2023-02-06T03:24:09.719Z,10.70
2023-02-06T03:26:45.009Z,10.80
2023-02-06T03:29:11.527Z,10.80
2023-02-06T03:31:38.187Z,10.90
2023-02-06T03:34:04.703Z,10.80
2023-02-06T03:36:31.192Z,10.80
2023-02-06T03:38:57.693Z,10.70
2023-02-06T03:41:24.154Z,10.80
2023-02-06T03:43:50.663Z,10.70
2023-02-06T03:46:17.175Z,10.70
2023-02-06T03:48:43.736Z,10.70
2023-02-06T03:51:10.219Z,10.80
2023-02-06T03:53:36.710Z,10.70
2023-02-06T03:56:03.193Z,10.80
2023-02-06T03:58:29.676Z,10.70
2023-02-06T04:00:56.184Z,10.80
2023-02-06T04:03:22.699Z,10.80
2023-02-06T04:05:49.179Z,10.80
2023-02-06T04:08:15.649Z,10.90
2023-02-06T04:10:42.129Z,10.70
2023-02-06T04:13:08.803Z,10.80
2023-02-06T04:15:35.551Z,10.80
2023-02-06T04:18:03.132Z,10.80
2023-02-06T04:20:29.969Z,10.70
2023-02-06T04:22:56.477Z,10.70
2023-02-06T04:25:22.963Z,10.70
2023-02-06T04:27:49.491Z,10.80
2023-02-06T04:30:16.027Z,10.70
2023-02-06T04:32:42.512Z,10.80
2023-02-06T04:35:09.012Z,10.70
2023-02-06T04:37:35.505Z,10.80
2023-02-06T04:40:02.022Z,10.70
2023-02-06T04:42:28.501Z,10.70
2023-02-06T04:44:55.011Z,10.70
2023-02-06T04:47:21.484Z,10.70
2023-02-06T04:49:47.955Z,10.80
2023-02-06T04:52:14.428Z,10.70
2023-02-06T04:54:40.936Z,10.70
2023-02-06T04:57:07.414Z,10.80
2023-02-06T04:59:33.885Z,10.70
2023-02-06T05:02:00.348Z,10.70
2023-02-06T05:04:26.856Z,10.70
2023-02-06T05:06:53.334Z,10.70
2023-02-06T05:09:19.821Z,10.70
2023-02-06T05:11:46.314Z,10.60
2023-02-06T05:14:14.854Z,10.50
2023-02-06T05:16:41.338Z,10.40
2023-02-06T05:19:07.821Z,10.50
2023-02-06T05:21:34.308Z,10.50
2023-02-06T05:24:00.796Z,10.50
2023-02-06T05:26:27.322Z,10.60
2023-02-06T05:28:53.795Z,10.50
2023-02-06T05:31:20.548Z,10.50
2023-02-06T05:33:47.104Z,10.50
2023-02-06T05:36:13.577Z,10.40
2023-02-06T05:38:40.041Z,10.40
2023-02-06T05:41:06.547Z,10.30
2023-02-06T05:43:33.012Z,10.30
2023-02-06T05:45:59.574Z,10.40
2023-02-06T05:48:26.061Z,10.50
2023-02-06T05:50:52.576Z,10.50
2023-02-06T05:53:19.037Z,10.50
2023-02-06T05:55:45.539Z,10.50
2023-02-06T05:58:12.000Z,10.50
2023-02-06T06:00:38.512Z,10.50
2023-02-06T06:03:04.985Z,10.50
2023-02-06T06:05:31.489Z,10.50
2023-02-06T06:07:57.961Z,10.50
2023-02-06T06:10:24.466Z,10.50
2023-02-06T06:12:50.942Z,10.50
2023-02-06T06:15:17.449Z,10.70
2023-02-06T06:17:43.932Z,10.60
2023-02-06T06:20:10.432Z,10.60
2023-02-06T06:22:36.897Z,10.60
2023-02-06T06:25:03.385Z,10.60
2023-02-06T06:27:33.139Z,10.70
2023-02-06T06:29:59.623Z,10.50
2023-02-06T06:32:26.112Z,10.60
2023-02-06T06:34:52.593Z,10.60
2023-02-06T06:37:19.060Z,10.60
2023-02-06T06:39:45.526Z,10.50
2023-02-06T06:42:14.957Z,10.50
2023-02-06T06:44:41.447Z,10.50
2023-02-06T06:47:07.927Z,10.60
2023-02-06T06:49:34.401Z,10.60
2023-02-06T06:52:00.867Z,10.70
2023-02-06T06:54:27.342Z,10.60
2023-02-06T06:56:53.827Z,10.50
2023-02-06T06:59:20.328Z,10.60
2023-02-06T07:01:46.814Z,10.60
2023-02-06T07:04:13.281Z,10.60
2023-02-06T07:06:39.778Z,10.60
2023-02-06T07:09:06.280Z,10.50
2023-02-06T07:11:32.769Z,10.60
2023-02-06T07:13:59.247Z,10.60
2023-02-06T07:16:25.765Z,10.50
2023-02-06T07:18:52.280Z,10.60
2023-02-06T07:21:18.783Z,10.60
2023-02-06T07:23:45.253Z,10.60
2023-02-06T07:26:11.754Z,10.70
2023-02-06T07:28:38.245Z,10.70
2023-02-06T07:31:04.733Z,10.50
2023-02-06T07:33:31.183Z,10.60
2023-02-06T07:35:57.694Z,10.70
2023-02-06T07:38:24.186Z,10.70
2023-02-06T07:40:50.670Z,10.70
2023-02-06T07:43:17.148Z,10.60
2023-02-06T07:45:43.676Z,10.50
2023-02-06T07:48:10.192Z,10.60
2023-02-06T07:50:36.703Z,10.70
2023-02-06T07:53:03.176Z,10.60
2023-02-06T07:55:29.632Z,10.60
2023-02-06T07:57:56.103Z,10.60
2023-02-06T08:00:22.566Z,10.60
2023-02-06T08:02:49.051Z,10.70
2023-02-06T08:05:15.523Z,10.60
2023-02-06T08:07:42.003Z,10.50
2023-02-06T08:10:08.485Z,10.60
2023-02-06T08:12:39.026Z,10.60
2023-02-06T08:15:05.478Z,10.70
2023-02-06T08:17:31.978Z,10.70
2023-02-06T08:19:58.468Z,10.50
2023-02-06T08:22:24.983Z,10.60
2023-02-06T08:24:51.603Z,10.60
2023-02-06T08:27:18.091Z,10.40
2023-02-06T08:29:44.551Z,10.40
2023-02-06T08:32:11.076Z,10.40
2023-02-06T08:34:37.559Z,10.40
2023-02-06T08:37:04.065Z,10.50
2023-02-06T08:39:30.568Z,10.60
2023-02-06T08:42:03.081Z,10.50
2023-02-06T08:44:29.584Z,10.50
2023-02-06T08:47:09.269Z,10.60
2023-02-06T08:49:36.708Z,10.60
2023-02-06T08:52:03.198Z,10.60
2023-02-06T08:54:29.679Z,10.60
2023-02-06T08:56:56.168Z,10.70
2023-02-06T08:59:22.646Z,10.70
2023-02-06T09:01:49.242Z,10.70
2023-02-06T09:04:15.796Z,10.70
2023-02-06T09:06:42.284Z,10.60
2023-02-06T09:09:08.754Z,10.60
2023-02-06T09:11:35.244Z,10.70
2023-02-06T09:14:01.733Z,10.60
2023-02-06T09:16:28.220Z,10.70
2023-02-06T09:18:54.717Z,10.50
2023-02-06T09:21:21.188Z,10.30
2023-02-06T09:23:47.687Z,10.50
2023-02-06T09:26:14.192Z,10.50
2023-02-06T09:28:40.666Z,10.50
2023-02-06T09:31:07.165Z,10.50
2023-02-06T09:33:39.101Z,10.60
2023-02-06T09:36:05.579Z,10.70
2023-02-06T09:38:33.101Z,10.50
2023-02-06T09:40:59.578Z,10.60
2023-02-06T09:43:26.065Z,10.50
2023-02-06T09:45:52.529Z,10.60
2023-02-06T09:48:19.030Z,10.60
2023-02-06T09:50:45.507Z,10.60
2023-02-06T09:53:12.026Z,10.60
2023-02-06T09:55:38.623Z,10.60
2023-02-06T09:58:05.267Z,10.70
2023-02-06T10:00:31.734Z,10.70
2023-02-06T10:02:58.257Z,10.70
2023-02-06T10:05:24.748Z,10.60
2023-02-06T10:07:51.266Z,10.80
2023-02-06T10:10:17.746Z,10.70
2023-02-06T10:12:44.217Z,10.70
2023-02-06T10:15:10.671Z,10.70
2023-02-06T10:17:37.127Z,10.70
2023-02-06T10:20:03.632Z,10.70
2023-02-06T10:22:30.115Z,10.60
2023-02-06T10:24:56.578Z,10.60
2023-02-06T10:27:23.050Z,10.50
2023-02-06T10:29:49.581Z,10.70
2023-02-06T10:32:16.061Z,10.60
2023-02-06T10:34:42.547Z,10.60
2023-02-06T10:37:09.028Z,10.70
2023-02-06T10:39:35.517Z,10.70
2023-02-06T10:42:03.128Z,10.60
2023-02-06T10:44:29.646Z,10.80
2023-02-06T10:46:56.229Z,10.70
2023-02-06T10:49:22.840Z,10.70
2023-02-06T10:51:49.320Z,10.70
2023-02-06T10:54:16.895Z,10.60
2023-02-06T10:56:43.352Z,10.80
2023-02-06T10:59:09.859Z,10.80
2023-02-06T11:01:36.427Z,10.80
2023-02-06T11:04:02.932Z,10.70
2023-02-06T11:06:29.420Z,10.70
2023-02-06T11:08:55.912Z,10.60
2023-02-06T11:11:22.411Z,10.70
2023-02-06T11:13:48.897Z,10.60
2023-02-06T11:16:15.427Z,10.60
2023-02-06T11:18:45.355Z,10.50
2023-02-06T11:21:11.860Z,10.70
2023-02-06T11:23:38.361Z,10.70
2023-02-06T11:26:04.856Z,10.80
2023-02-06T11:28:31.314Z,10.80
2023-02-06T11:30:57.854Z,10.80
2023-02-06T11:33:24.440Z,10.70
2023-02-06T11:35:50.913Z,10.60
2023-02-06T11:38:17.392Z,10.60
2023-02-06T11:40:43.873Z,10.70
2023-02-06T11:43:10.333Z,10.70
2023-02-06T11:45:37.168Z,10.40
2023-02-06T11:48:03.847Z,10.50
2023-02-06T11:50:30.327Z,10.50
2023-02-06T11:52:56.823Z,10.60
2023-02-06T11:55:23.353Z,10.40
2023-02-06T11:57:49.835Z,10.60
2023-02-06T12:00:16.337Z,10.40
2023-02-06T12:02:42.864Z,10.40
2023-02-06T12:05:09.337Z,10.50
2023-02-06T12:07:39.239Z,10.50
2023-02-06T12:10:05.745Z,10.60
2023-02-06T12:12:32.223Z,10.70
2023-02-06T12:14:58.700Z,10.80
2023-02-06T12:17:25.180Z,10.60
2023-02-06T12:19:51.659Z,10.80
2023-02-06T12:22:18.177Z,10.80
2023-02-06T12:24:44.704Z,10.50
2023-02-06T12:27:11.184Z,10.70
2023-02-06T12:29:37.673Z,10.70
2023-02-06T12:32:04.263Z,10.60
2023-02-06T12:34:30.771Z,10.60
2023-02-06T12:36:57.234Z,10.70
2023-02-06T12:39:23.710Z,10.60
2023-02-06T12:41:50.201Z,10.60
2023-02-06T12:44:16.735Z,10.70
2023-02-06T12:46:43.236Z,10.70
2023-02-06T12:49:09.696Z,10.70
2023-02-06T12:51:36.218Z,10.60
2023-02-06T12:54:02.709Z,10.70
2023-02-06T12:56:29.218Z,10.70
2023-02-06T12:58:56.315Z,10.70
2023-02-06T13:01:30.645Z,10.60
2023-02-06T13:03:58.724Z,10.70
2023-02-06T13:06:25.199Z,10.80
2023-02-06T13:08:51.684Z,10.70
2023-02-06T13:11:18.159Z,10.70
2023-02-06T13:13:44.635Z,10.60
2023-02-06T13:16:11.192Z,10.60
2023-02-06T13:18:38.052Z,10.70
2023-02-06T13:21:04.550Z,10.90
2023-02-06T13:23:31.037Z,10.80
2023-02-06T13:25:57.555Z,10.80
2023-02-06T13:28:24.068Z,10.80
2023-02-06T13:30:50.756Z,10.50
2023-02-06T13:33:17.298Z,10.30
2023-02-06T13:35:43.778Z,10.50
2023-02-06T13:38:10.256Z,10.80
2023-02-06T13:40:36.735Z,10.70
2023-02-06T13:43:03.225Z,10.60
2023-02-06T13:45:29.769Z,10.80
2023-02-06T13:47:56.245Z,10.80
2023-02-06T13:50:22.726Z,10.90
2023-02-06T13:52:49.202Z,10.80
2023-02-06T13:55:15.705Z,11.00
2023-02-06T13:57:42.203Z,10.80
2023-02-06T14:00:08.729Z,10.80
2023-02-06T14:02:35.385Z,10.80
2023-02-06T14:05:01.910Z,10.70
2023-02-06T14:07:28.383Z,10.60
2023-02-06T14:09:54.849Z,10.80
2023-02-06T14:12:21.351Z,10.80
2023-02-06T14:14:47.873Z,10.80
2023-02-06T14:17:14.515Z,10.80
2023-02-06T14:19:40.984Z,10.80
2023-02-06T14:22:07.479Z,10.80
2023-02-06T14:24:33.958Z,10.70
2023-02-06T14:27:00.445Z,10.90
2023-02-06T14:29:26.936Z,10.90
2023-02-06T14:31:53.485Z,10.90
2023-02-06T14:34:19.983Z,10.90
2023-02-06T14:36:46.481Z,11.00
2023-02-06T14:39:12.991Z,10.80
2023-02-06T14:41:39.502Z,10.90
2023-02-06T14:44:06.009Z,10.90
2023-02-06T14:46:32.515Z,10.90
2023-02-06T14:48:59.034Z,11.00
2023-02-06T14:51:25.535Z,10.80
2023-02-06T14:53:52.026Z,10.70
2023-02-06T14:56:18.685Z,10.90
2023-02-06T14:58:45.178Z,11.00
2023-02-06T15:01:11.640Z,11.00
2023-02-06T15:03:38.118Z,10.90
2023-02-06T15:06:04.652Z,10.90
2023-02-06T15:08:32.608Z,11.00
2023-02-06T15:10:59.873Z,10.90
2023-02-06T15:13:26.337Z,10.90
2023-02-06T15:15:52.819Z,11.00
2023-02-06T15:18:19.280Z,11.00
2023-02-06T15:20:45.795Z,11.00
2023-02-06T15:23:18.101Z,11.00
2023-02-06T15:25:45.009Z,10.90
2023-02-06T15:28:11.516Z,10.90
2023-02-06T15:30:38.437Z,10.90
2023-02-06T15:33:05.119Z,10.90
2023-02-06T15:35:31.580Z,10.80
2023-02-06T15:37:58.052Z,10.90
2023-02-06T15:40:24.535Z,11.00
2023-02-06T15:42:51.008Z,11.10
2023-02-06T15:45:21.555Z,10.90
2023-02-06T15:47:48.002Z,10.90
2023-02-06T15:50:14.495Z,11.00
2023-02-06T15:52:40.985Z,10.90
2023-02-06T15:55:07.463Z,10.90
2023-02-06T15:57:33.949Z,10.90
2023-02-06T16:00:00.433Z,10.80
2023-02-06T16:02:26.948Z,10.90
2023-02-06T16:04:53.448Z,10.90
2023-02-06T16:07:19.940Z,10.90
2023-02-06T16:09:46.443Z,11.00
2023-02-06T16:12:12.967Z,11.00
2023-02-06T16:14:39.451Z,11.00
2023-02-06T16:17:05.959Z,10.80
2023-02-06T16:19:32.456Z,10.90
2023-02-06T16:21:58.940Z,11.00
2023-02-06T16:24:25.406Z,11.00
2023-02-06T16:26:51.908Z,11.00
2023-02-06T16:29:18.479Z,11.00
2023-02-06T16:31:45.602Z,11.10
2023-02-06T16:34:12.183Z,11.10
2023-02-06T16:36:38.667Z,11.00
2023-02-06T16:39:05.178Z,11.10
2023-02-06T16:41:31.682Z,11.10
2023-02-06T16:43:58.168Z,11.10
2023-02-06T16:46:24.698Z,11.00
2023-02-06T16:48:51.196Z,11.00
2023-02-06T16:51:17.665Z,10.90
2023-02-06T16:53:44.147Z,11.00
2023-02-06T16:56:10.658Z,11.00
2023-02-06T16:58:37.148Z,10.80
2023-02-06T17:01:03.680Z,10.90
2023-02-06T17:03:30.192Z,10.90
2023-02-06T17:05:57.442Z,10.70
2023-02-06T17:08:23.920Z,10.80
2023-02-06T17:10:50.388Z,10.70
2023-02-06T17:13:16.875Z,10.70
2023-02-06T17:15:43.380Z,10.80
2023-02-06T17:18:09.865Z,10.90
2023-02-06T17:20:36.564Z,10.90
2023-02-06T17:23:03.289Z,10.90
2023-02-06T17:25:29.779Z,10.90
2023-02-06T17:27:56.329Z,11.00
2023-02-06T17:30:22.854Z,10.90
2023-02-06T17:32:49.396Z,11.00
2023-02-06T17:35:15.882Z,11.10
2023-02-06T17:37:42.366Z,11.10
2023-02-06T17:40:08.898Z,11.00
2023-02-06T17:42:39.579Z,11.00
2023-02-06T17:45:06.053Z,11.00
2023-02-06T17:47:32.526Z,10.90
2023-02-06T17:49:59.020Z,11.10
2023-02-06T17:52:25.504Z,11.00
2023-02-06T17:54:51.969Z,11.00
2023-02-06T17:57:21.708Z,11.00
2023-02-06T17:59:48.192Z,10.90
2023-02-06T18:02:14.734Z,11.00
2023-02-06T18:04:41.256Z,11.10
2023-02-06T18:07:07.727Z,11.00
2023-02-06T18:09:34.210Z,11.00
2023-02-06T18:12:00.686Z,11.00
2023-02-06T18:14:27.550Z,10.90
2023-02-06T18:16:54.054Z,10.90
2023-02-06T18:19:20.541Z,10.90
2023-02-06T18:21:47.021Z,10.90
2023-02-06T18:24:13.487Z,11.10
2023-02-06T18:26:39.966Z,11.00
2023-02-06T18:29:06.481Z,11.00
2023-02-06T18:31:33.020Z,10.90
2023-02-06T18:33:59.546Z,10.90
2023-02-06T18:36:26.042Z,10.80
2023-02-06T18:38:52.568Z,10.90
2023-02-06T18:41:19.046Z,10.90
2023-02-06T18:43:45.524Z,10.90
2023-02-06T18:46:12.041Z,10.90
2023-02-06T18:48:38.543Z,10.80
2023-02-06T18:51:05.005Z,10.80
2023-02-06T18:53:31.454Z,10.80
2023-02-06T18:55:57.943Z,10.80
2023-02-06T18:58:24.416Z,10.90
2023-02-06T19:00:51.630Z,10.90
2023-02-06T19:03:18.106Z,10.90
2023-02-06T19:05:44.603Z,10.90
2023-02-06T19:08:11.076Z,10.80
2023-02-06T19:10:37.995Z,10.90
2023-02-06T19:13:04.683Z,10.90
2023-02-06T19:15:31.151Z,10.90
2023-02-06T19:17:57.613Z,10.80
2023-02-06T19:20:24.096Z,10.80
2023-02-06T19:22:50.560Z,10.90
2023-02-06T19:25:17.034Z,10.90
2023-02-06T19:27:43.519Z,10.80
2023-02-06T19:30:10.002Z,10.80
2023-02-06T19:32:36.529Z,10.80
2023-02-06T19:35:03.052Z,10.90
2023-02-06T19:37:29.522Z,10.90
2023-02-06T19:39:56.030Z,10.80
2023-02-06T19:42:22.517Z,11.00
2023-02-06T19:44:49.018Z,10.90
2023-02-06T19:47:15.496Z,11.10
2023-02-06T19:49:42.001Z,10.90
2023-02-06T19:52:08.472Z,10.90
2023-02-06T19:54:34.941Z,10.80
2023-02-06T19:57:01.424Z,10.90
2023-02-06T19:59:27.903Z,10.90
2023-02-06T20:01:54.383Z,10.90
2023-02-06T20:04:20.837Z,10.90
2023-02-06T20:06:47.329Z,10.80
2023-02-06T20:09:13.811Z,10.80
2023-02-06T20:11:40.303Z,10.90
2023-02-06T20:14:06.777Z,10.90
2023-02-06T20:16:33.274Z,10.90
2023-02-06T20:18:59.755Z,10.80
2023-02-06T20:21:26.774Z,10.80
2023-02-06T20:23:53.293Z,10.80
2023-02-06T20:26:19.756Z,10.70
2023-02-06T20:28:46.246Z,10.80
2023-02-06T20:31:12.835Z,10.70
2023-02-06T20:33:39.375Z,10.70
2023-02-06T20:36:05.864Z,10.70
2023-02-06T20:38:32.352Z,10.70
2023-02-06T20:40:58.824Z,10.70
2023-02-06T20:43:25.292Z,10.80
2023-02-06T20:45:51.805Z,10.80
2023-02-06T20:48:18.370Z,10.70
2023-02-06T20:50:45.651Z,10.70
2023-02-06T20:53:12.131Z,10.70
2023-02-06T20:55:38.595Z,10.60
2023-02-06T20:58:05.060Z,10.70
2023-02-06T21:00:33.670Z,10.80
2023-02-06T21:03:00.213Z,10.80
2023-02-06T21:05:27.024Z,10.80
2023-02-06T21:07:53.574Z,10.90
2023-02-06T21:10:20.065Z,10.80
2023-02-06T21:12:46.547Z,10.80
2023-02-06T21:15:13.047Z,10.60
2023-02-06T21:17:39.517Z,10.80
2023-02-06T21:20:06.006Z,10.70
2023-02-06T21:22:32.488Z,10.70
2023-02-06T21:24:58.960Z,10.70
2023-02-06T21:27:25.455Z,10.70
2023-02-06T21:29:51.943Z,10.70
2023-02-06T21:32:18.450Z,10.80
2023-02-06T21:34:44.973Z,10.70
2023-02-06T21:37:11.452Z,10.80
2023-02-06T21:39:37.937Z,10.80
2023-02-06T21:42:04.431Z,10.70
2023-02-06T21:44:30.896Z,10.70
2023-02-06T21:46:57.385Z,10.80
2023-02-06T21:49:23.875Z,10.70
2023-02-06T21:51:50.349Z,10.80
2023-02-06T21:54:16.819Z,10.80
2023-02-06T21:56:43.305Z,10.70
2023-02-06T21:59:09.765Z,10.70
2023-02-06T22:01:36.305Z,10.80
2023-02-06T22:04:02.830Z,10.70
2023-02-06T22:06:29.352Z,10.80
2023-02-06T22:08:55.892Z,10.60
2023-02-06T22:11:22.401Z,10.50
2023-02-06T22:13:48.946Z,10.40
2023-02-06T22:16:15.499Z,10.50
2023-02-06T22:18:41.990Z,10.50
2023-02-06T22:21:08.496Z,10.50
2023-02-06T22:23:35.031Z,10.60
2023-02-06T22:26:01.549Z,10.60
2023-02-06T22:28:28.036Z,10.40
2023-02-06T22:30:54.582Z,10.50
2023-02-06T22:33:21.118Z,10.60
2023-02-06T22:35:47.607Z,10.70
2023-02-06T22:38:14.081Z,10.70
2023-02-06T22:40:40.586Z,10.70
2023-02-06T22:43:07.062Z,10.60
2023-02-06T22:45:33.538Z,10.60
2023-02-06T22:48:00.017Z,10.60
2023-02-06T22:50:26.505Z,10.70
2023-02-06T22:52:52.944Z,10.70
2023-02-06T22:55:19.427Z,10.60
2023-02-06T22:57:45.904Z,10.60
2023-02-06T23:00:12.388Z,10.60
2023-02-06T23:02:38.878Z,10.50
2023-02-06T23:05:05.343Z,10.70
2023-02-06T23:07:31.848Z,10.50
2023-02-06T23:09:58.326Z,10.50
2023-02-06T23:12:24.812Z,10.50
2023-02-06T23:14:51.282Z,10.50
2023-02-06T23:17:17.778Z,10.60
2023-02-06T23:19:44.248Z,10.60
2023-02-06T23:22:10.729Z,10.60
2023-02-06T23:24:37.195Z,10.50
2023-02-06T23:27:03.672Z,10.60
2023-02-06T23:29:33.966Z,10.40
2023-02-06T23:32:00.444Z,10.60
2023-02-06T23:34:26.905Z,10.60
2023-02-06T23:36:53.428Z,10.40
2023-02-06T23:39:19.928Z,10.40
2023-02-06T23:41:46.422Z,10.40
2023-02-06T23:44:12.911Z,10.40
2023-02-06T23:46:39.571Z,10.50
2023-02-06T23:49:06.073Z,10.40
2023-02-06T23:51:32.571Z,10.50
2023-02-06T23:53:59.043Z,10.40
2023-02-06T23:56:25.530Z,10.50
2023-02-06T23:58:52.016Z,10.30
